createdAt,value
2017-08-29T00:00:59.551Z,1010.88
2017-08-29T00:01:38.553Z,1010.90
2017-08-29T00:02:39.584Z,1010.90
2017-08-29T00:03:38.599Z,1010.89
2017-08-29T00:04:39.703Z,1010.86
2017-08-29T00:05:38.613Z,1010.87
2017-08-29T00:06:39.719Z,1010.89
2017-08-29T00:07:38.659Z,1010.87
2017-08-29T00:08:39.741Z,1010.87
2017-08-29T00:09:38.693Z,1010.90
2017-08-29T00:10:45.377Z,1010.88
2017-08-29T00:11:38.703Z,1010.90
2017-08-29T00:12:44.366Z,1010.87
2017-08-29T00:13:43.349Z,1010.85
2017-08-29T00:14:38.751Z,1010.89
2017-08-29T00:15:38.912Z,1010.89
2017-08-29T00:16:38.788Z,1010.88
2017-08-29T00:17:53.491Z,1010.90
2017-08-29T00:18:38.827Z,1010.88
2017-08-29T00:19:54.863Z,1010.90
2017-08-29T00:20:38.922Z,1010.92
2017-08-29T00:21:40.944Z,1010.91
2017-08-29T00:22:38.884Z,1010.88
2017-08-29T00:23:49.865Z,1010.87
2017-08-29T00:24:38.907Z,1010.87
2017-08-29T00:25:44.861Z,1010.91
2017-08-29T00:26:38.938Z,1010.88
2017-08-29T00:27:45.983Z,1010.93
2017-08-29T00:28:38.978Z,1010.85
2017-08-29T00:29:44.890Z,1010.88
2017-08-29T00:30:39.001Z,1010.88
2017-08-29T00:31:41.124Z,1010.85
2017-08-29T00:32:39.037Z,1010.86
2017-08-29T00:33:40.108Z,1010.83
2017-08-29T00:34:39.066Z,1010.86
2017-08-29T00:35:45.858Z,1010.81
2017-08-29T00:36:39.096Z,1010.80
2017-08-29T00:37:40.132Z,1010.85
2017-08-29T00:38:39.129Z,1010.86
2017-08-29T00:39:44.858Z,1010.85
2017-08-29T00:40:39.185Z,1010.85
2017-08-29T00:41:43.849Z,1010.87
2017-08-29T00:42:39.184Z,1010.86
2017-08-29T00:43:44.884Z,1010.87
2017-08-29T00:44:39.223Z,1010.83
2017-08-29T00:45:44.897Z,1010.83
2017-08-29T00:46:39.249Z,1010.85
2017-08-29T00:47:41.330Z,1010.86
2017-08-29T00:48:39.277Z,1010.86
2017-08-29T00:49:49.841Z,1010.80
2017-08-29T00:50:39.313Z,1010.82
2017-08-29T00:51:39.408Z,1010.79
2017-08-29T00:52:39.343Z,1010.75
2017-08-29T00:53:52.433Z,1010.77
2017-08-29T00:54:39.377Z,1010.74
2017-08-29T00:55:46.463Z,1010.74
2017-08-29T00:56:39.402Z,1010.75
2017-08-29T00:57:39.451Z,1010.74
2017-08-29T00:58:39.433Z,1010.77
2017-08-29T00:59:39.569Z,1010.76
2017-08-29T01:00:39.469Z,1010.75
2017-08-29T01:01:44.401Z,1010.76
2017-08-29T01:02:39.498Z,1010.76
2017-08-29T01:03:56.389Z,1010.72
2017-08-29T01:04:39.526Z,1010.72
2017-08-29T01:05:45.448Z,1010.73
2017-08-29T01:06:39.577Z,1010.68
2017-08-29T01:07:39.624Z,1010.69
2017-08-29T01:08:39.594Z,1010.72
2017-08-29T01:09:39.650Z,1010.71
2017-08-29T01:10:39.618Z,1010.74
2017-08-29T01:11:39.756Z,1010.75
2017-08-29T01:12:39.657Z,1010.74
2017-08-29T01:13:51.384Z,1010.74
2017-08-29T01:14:39.685Z,1010.73
2017-08-29T01:15:40.749Z,1010.75
2017-08-29T01:16:39.708Z,1010.76
2017-08-29T01:17:40.765Z,1010.74
2017-08-29T01:18:39.743Z,1010.74
2017-08-29T01:19:50.400Z,1010.74
2017-08-29T01:20:39.773Z,1010.71
2017-08-29T01:21:39.867Z,1010.73
2017-08-29T01:22:39.802Z,1010.72
2017-08-29T01:23:45.409Z,1010.71
2017-08-29T01:24:39.839Z,1010.70
2017-08-29T01:25:51.884Z,1010.71
2017-08-29T01:26:39.868Z,1010.70
2017-08-29T01:27:44.933Z,1010.70
2017-08-29T01:28:39.896Z,1010.72
2017-08-29T01:30:11.882Z,1010.67
2017-08-29T01:30:39.930Z,1010.69
2017-08-29T01:31:39.943Z,1010.68
2017-08-29T01:32:50.900Z,1010.69
2017-08-29T01:33:39.984Z,1010.70
2017-08-29T01:34:40.059Z,1010.68
2017-08-29T01:35:40.003Z,1010.72
2017-08-29T01:36:44.880Z,1010.74
2017-08-29T01:37:40.036Z,1010.69
2017-08-29T01:38:40.081Z,1010.70
2017-08-29T01:39:40.065Z,1010.68
2017-08-29T01:40:42.159Z,1010.65
2017-08-29T01:41:40.095Z,1010.67
2017-08-29T01:42:40.212Z,1010.61
2017-08-29T01:43:40.124Z,1010.65
2017-08-29T01:44:44.931Z,1010.59
2017-08-29T01:45:40.156Z,1010.63
2017-08-29T01:46:40.236Z,1010.59
2017-08-29T01:47:40.189Z,1010.56
2017-08-29T01:48:45.881Z,1010.57
2017-08-29T01:49:40.226Z,1010.57
2017-08-29T01:50:44.887Z,1010.51
2017-08-29T01:51:40.244Z,1010.53
2017-08-29T01:52:45.918Z,1010.50
2017-08-29T01:53:40.276Z,1010.51
2017-08-29T01:54:45.928Z,1010.52
2017-08-29T01:55:40.307Z,1010.50
2017-08-29T01:56:42.357Z,1010.50
2017-08-29T01:57:40.340Z,1010.49
2017-08-29T01:58:45.955Z,1010.49
2017-08-29T01:59:40.390Z,1010.49
2017-08-29T02:00:47.402Z,1010.45
2017-08-29T02:01:40.400Z,1010.45
2017-08-29T02:02:45.367Z,1010.50
2017-08-29T02:03:40.424Z,1010.51
2017-08-29T02:04:40.465Z,1010.48
2017-08-29T02:05:40.461Z,1010.46
2017-08-29T02:06:51.435Z,1010.46
2017-08-29T02:07:40.488Z,1010.45
2017-08-29T02:08:41.620Z,1010.44
2017-08-29T02:09:40.552Z,1010.41
2017-08-29T02:10:40.604Z,1010.46
2017-08-29T02:11:40.549Z,1010.45
2017-08-29T02:12:40.619Z,1010.41
2017-08-29T02:13:40.940Z,1010.39
2017-08-29T02:14:52.410Z,1010.39
2017-08-29T02:15:40.616Z,1010.38
2017-08-29T02:16:42.698Z,1010.40
2017-08-29T02:17:40.639Z,1010.37
2017-08-29T02:18:40.763Z,1010.31
2017-08-29T02:19:40.669Z,1010.31
2017-08-29T02:20:41.699Z,1010.33
2017-08-29T02:21:40.703Z,1010.33
2017-08-29T02:22:52.463Z,1010.30
2017-08-29T02:23:40.728Z,1010.33
2017-08-29T02:24:45.412Z,1010.33
2017-08-29T02:25:40.763Z,1010.33
2017-08-29T02:27:01.792Z,1010.27
2017-08-29T02:27:40.925Z,1010.27
2017-08-29T02:28:42.880Z,1010.27
2017-08-29T02:29:40.816Z,1010.29
2017-08-29T02:31:02.862Z,1010.27
2017-08-29T02:31:40.850Z,1010.24
2017-08-29T02:32:41.879Z,1010.27
2017-08-29T02:33:40.873Z,1010.26
2017-08-29T02:34:41.067Z,1010.23
2017-08-29T02:35:40.910Z,1010.22
2017-08-29T02:36:57.883Z,1010.23
2017-08-29T02:37:40.957Z,1010.24
2017-08-29T02:53:11.858Z,1010.17
2017-08-29T02:54:11.741Z,1010.17
2017-08-29T03:01:04.435Z,1010.14
2017-08-29T03:01:50.134Z,1010.14
2017-08-29T03:07:12.139Z,1010.07
2017-08-29T03:08:12.117Z,1010.05
2017-08-29T03:19:40.858Z,1009.96
2017-08-29T03:20:40.916Z,1009.95
2017-08-29T03:21:40.857Z,1009.93
2017-08-29T03:22:40.934Z,1009.94
2017-08-29T03:23:40.879Z,1009.94
2017-08-29T03:24:40.944Z,1009.91
2017-08-29T03:25:40.911Z,1009.93
2017-08-29T03:26:40.956Z,1009.96
2017-08-29T03:27:40.936Z,1009.97
2017-08-29T03:28:45.882Z,1009.98
2017-08-29T03:29:40.968Z,1009.95
2017-08-29T03:30:42.007Z,1009.97
2017-08-29T03:31:41.001Z,1010.00
2017-08-29T03:32:43.045Z,1009.96
2017-08-29T03:33:41.026Z,1009.99
2017-08-29T03:34:42.138Z,1009.98
2017-08-29T03:35:41.079Z,1009.97
2017-08-29T03:36:47.881Z,1009.97
2017-08-29T03:37:41.090Z,1009.99
2017-08-29T03:38:43.182Z,1009.96
2017-08-29T03:39:41.117Z,1009.95
2017-08-29T03:40:45.861Z,1009.96
2017-08-29T03:41:41.234Z,1010.00
2017-08-29T03:42:41.266Z,1009.97
2017-08-29T03:43:41.177Z,1010.02
2017-08-29T03:44:51.827Z,1010.01
2017-08-29T03:45:41.216Z,1009.95
2017-08-29T03:46:42.316Z,1009.97
2017-08-29T03:47:41.232Z,1009.98
2017-08-29T03:48:41.306Z,1009.96
2017-08-29T03:49:41.266Z,1009.98
2017-08-29T03:51:06.304Z,1009.95
2017-08-29T03:51:41.290Z,1009.97
2017-08-29T03:52:41.305Z,1009.99
2017-08-29T03:53:46.361Z,1009.94
2017-08-29T03:54:41.336Z,1009.93
2017-08-29T03:55:46.377Z,1009.92
2017-08-29T03:56:41.369Z,1009.96
2017-08-29T03:57:42.500Z,1009.95
2017-08-29T03:58:41.393Z,1009.96
2017-08-29T03:59:46.404Z,1010.01
2017-08-29T04:00:41.426Z,1009.96
2017-08-29T04:01:43.548Z,1009.98
2017-08-29T04:02:41.456Z,1009.98
2017-08-29T04:03:53.410Z,1009.98
2017-08-29T04:04:41.499Z,1009.97
2017-08-29T04:05:43.574Z,1009.97
2017-08-29T04:06:41.510Z,1009.95
2017-08-29T04:07:43.596Z,1009.95
2017-08-29T04:08:41.547Z,1010.00
2017-08-29T04:09:41.659Z,1009.99
2017-08-29T04:10:41.572Z,1009.98
2017-08-29T04:11:57.336Z,1009.96
2017-08-29T04:12:41.599Z,1009.94
2017-08-29T04:13:42.706Z,1009.99
2017-08-29T04:14:41.638Z,1009.96
2017-08-29T04:15:48.363Z,1010.01
2017-08-29T04:16:41.670Z,1009.99
2017-08-29T04:17:41.707Z,1009.98
2017-08-29T04:18:41.684Z,1009.98
2017-08-29T04:19:52.368Z,1009.92
2017-08-29T04:20:41.718Z,1009.94
2017-08-29T04:21:46.358Z,1009.98
2017-08-29T04:22:41.740Z,1009.96
2017-08-29T04:23:41.861Z,1009.96
2017-08-29T04:24:41.773Z,1009.97
2017-08-29T04:25:47.395Z,1009.95
2017-08-29T04:26:41.814Z,1009.97
2017-08-29T04:27:42.903Z,1009.97
2017-08-29T04:28:41.831Z,1009.91
2017-08-29T04:29:47.828Z,1009.88
2017-08-29T04:30:41.867Z,1009.89
2017-08-29T04:31:42.938Z,1009.93
2017-08-29T04:32:41.889Z,1009.95
2017-08-29T04:33:41.935Z,1009.95
2017-08-29T04:34:41.920Z,1009.93
2017-08-29T04:35:42.049Z,1009.93
2017-08-29T04:36:41.946Z,1009.93
2017-08-29T04:37:48.917Z,1009.92
2017-08-29T04:38:41.973Z,1009.88
2017-08-29T04:39:43.093Z,1009.91
2017-08-29T04:40:42.010Z,1009.87
2017-08-29T04:41:42.081Z,1009.89
2017-08-29T04:42:42.039Z,1009.92
2017-08-29T04:43:44.141Z,1009.89
2017-08-29T04:44:42.068Z,1009.85
2017-08-29T04:45:46.920Z,1009.85
2017-08-29T04:46:42.098Z,1009.87
2017-08-29T04:47:42.128Z,1009.85
2017-08-29T04:48:42.127Z,1009.87
2017-08-29T04:49:42.245Z,1009.87
2017-08-29T04:50:42.147Z,1009.83
2017-08-29T04:51:42.249Z,1009.86
2017-08-29T04:52:42.174Z,1009.85
2017-08-29T04:53:42.263Z,1009.85
2017-08-29T04:54:42.232Z,1009.85
2017-08-29T04:55:42.295Z,1009.88
2017-08-29T04:56:42.233Z,1009.84
2017-08-29T04:57:42.296Z,1009.87
2017-08-29T04:58:42.263Z,1009.88
2017-08-29T04:59:42.318Z,1009.88
2017-08-29T05:00:42.292Z,1009.89
2017-08-29T05:01:42.424Z,1009.89
2017-08-29T05:02:42.327Z,1009.91
2017-08-29T05:03:42.442Z,1009.89
2017-08-29T05:04:42.347Z,1009.95
2017-08-29T05:05:42.457Z,1009.95
2017-08-29T05:06:42.376Z,1009.96
2017-08-29T05:07:42.465Z,1009.95
2017-08-29T05:08:42.411Z,1009.96
2017-08-29T05:09:42.424Z,1009.97
2017-08-29T05:10:42.797Z,1009.96
2017-08-29T05:11:42.449Z,1009.97
2017-08-29T05:12:42.461Z,1009.99
2017-08-29T05:13:42.511Z,1009.95
2017-08-29T05:14:42.494Z,1009.95
2017-08-29T05:15:42.509Z,1009.92
2017-08-29T05:16:42.518Z,1009.91
2017-08-29T05:17:42.534Z,1009.92
2017-08-29T05:18:42.551Z,1009.93
2017-08-29T05:19:42.564Z,1009.94
2017-08-29T05:20:42.577Z,1009.98
2017-08-29T05:21:42.718Z,1009.93
2017-08-29T05:22:42.606Z,1009.95
2017-08-29T05:23:42.733Z,1009.93
2017-08-29T05:24:42.635Z,1009.95
2017-08-29T05:25:42.749Z,1009.94
2017-08-29T05:26:42.662Z,1009.94
2017-08-29T05:27:42.858Z,1009.93
2017-08-29T05:28:42.694Z,1009.94
2017-08-29T05:29:42.704Z,1009.98
2017-08-29T05:30:42.717Z,1009.96
2017-08-29T05:31:42.739Z,1009.94
2017-08-29T05:32:42.745Z,1009.95
2017-08-29T05:33:42.758Z,1009.92
2017-08-29T05:34:42.774Z,1009.92
2017-08-29T05:35:42.793Z,1009.89
2017-08-29T05:36:42.801Z,1009.95
2017-08-29T05:37:42.817Z,1009.92
2017-08-29T05:38:42.835Z,1009.92
2017-08-29T05:39:42.843Z,1009.94
2017-08-29T05:40:42.860Z,1009.90
2017-08-29T05:41:42.873Z,1009.93
2017-08-29T05:42:42.890Z,1009.94
2017-08-29T05:43:42.905Z,1009.94
2017-08-29T05:44:42.926Z,1009.94
2017-08-29T05:45:43.015Z,1009.92
2017-08-29T05:46:42.947Z,1009.90
2017-08-29T05:47:42.956Z,1009.91
2017-08-29T05:48:42.976Z,1009.89
2017-08-29T05:49:42.988Z,1009.87
2017-08-29T05:50:43.000Z,1009.86
2017-08-29T05:51:43.021Z,1009.85
2017-08-29T05:52:43.035Z,1009.86
2017-08-29T05:53:43.044Z,1009.86
2017-08-29T05:54:43.161Z,1009.82
2017-08-29T05:55:43.078Z,1009.80
2017-08-29T05:56:43.089Z,1009.81
2017-08-29T05:57:43.102Z,1009.81
2017-08-29T05:58:43.119Z,1009.79
2017-08-29T05:59:43.132Z,1009.77
2017-08-29T06:00:43.140Z,1009.76
2017-08-29T06:01:43.160Z,1009.78
2017-08-29T06:02:43.170Z,1009.78
2017-08-29T06:03:43.215Z,1009.78
2017-08-29T06:04:43.207Z,1009.78
2017-08-29T06:05:43.328Z,1009.78
2017-08-29T06:06:43.228Z,1009.78
2017-08-29T06:07:43.247Z,1009.83
2017-08-29T06:08:43.256Z,1009.80
2017-08-29T06:09:43.270Z,1009.79
2017-08-29T06:10:43.285Z,1009.77
2017-08-29T06:11:43.302Z,1009.80
2017-08-29T06:12:43.313Z,1009.78
2017-08-29T06:13:43.326Z,1009.81
2017-08-29T06:14:43.341Z,1009.75
2017-08-29T06:15:43.368Z,1009.77
2017-08-29T06:16:43.403Z,1009.78
2017-08-29T06:17:43.388Z,1009.78
2017-08-29T06:18:43.405Z,1009.79
2017-08-29T06:19:43.407Z,1009.80
2017-08-29T06:20:43.424Z,1009.80
2017-08-29T06:21:43.441Z,1009.82
2017-08-29T06:22:43.470Z,1009.81
2017-08-29T06:23:43.485Z,1009.81
2017-08-29T06:24:43.482Z,1009.78
2017-08-29T06:25:43.495Z,1009.75
2017-08-29T06:26:43.514Z,1009.76
2017-08-29T06:27:43.542Z,1009.71
2017-08-29T06:28:43.567Z,1009.72
2017-08-29T06:29:44.580Z,1009.65
2017-08-29T06:30:43.585Z,1009.70
2017-08-29T06:31:43.707Z,1009.67
2017-08-29T06:32:43.602Z,1009.67
2017-08-29T06:33:43.680Z,1009.66
2017-08-29T06:34:43.628Z,1009.70
2017-08-29T06:35:43.708Z,1009.67
2017-08-29T06:36:43.657Z,1009.68
2017-08-29T06:37:43.676Z,1009.63
2017-08-29T06:38:44.743Z,1009.60
2017-08-29T06:39:43.696Z,1009.62
2017-08-29T06:40:43.731Z,1009.64
2017-08-29T06:41:43.726Z,1009.64
2017-08-29T06:42:43.731Z,1009.67
2017-08-29T06:43:43.853Z,1009.65
2017-08-29T06:44:43.762Z,1009.66
2017-08-29T06:45:43.775Z,1009.67
2017-08-29T06:46:43.792Z,1009.62
2017-08-29T06:47:43.802Z,1009.68
2017-08-29T06:48:43.818Z,1009.68
2017-08-29T06:49:43.830Z,1009.64
2017-08-29T06:50:43.852Z,1009.67
2017-08-29T06:51:43.861Z,1009.69
2017-08-29T06:52:43.984Z,1009.70
2017-08-29T06:53:43.886Z,1009.71
2017-08-29T06:54:43.903Z,1009.71
2017-08-29T06:55:43.917Z,1009.73
2017-08-29T06:56:43.932Z,1009.74
2017-08-29T06:57:43.938Z,1009.68
2017-08-29T06:58:43.951Z,1009.67
2017-08-29T06:59:43.972Z,1009.68
2017-08-29T07:00:43.999Z,1009.67
2017-08-29T07:01:43.999Z,1009.62
2017-08-29T07:02:44.055Z,1009.64
2017-08-29T07:03:44.022Z,1009.60
2017-08-29T07:04:44.040Z,1009.57
2017-08-29T07:05:44.073Z,1009.57
2017-08-29T07:06:44.075Z,1009.55
2017-08-29T07:07:44.191Z,1009.52
2017-08-29T07:08:44.106Z,1009.58
2017-08-29T07:09:44.117Z,1009.54
2017-08-29T07:10:44.123Z,1009.55
2017-08-29T07:11:44.142Z,1009.56
2017-08-29T07:12:44.152Z,1009.53
2017-08-29T07:13:44.184Z,1009.55
2017-08-29T07:14:44.191Z,1009.57
2017-08-29T07:15:44.199Z,1009.56
2017-08-29T07:16:44.207Z,1009.54
2017-08-29T07:17:44.226Z,1009.55
2017-08-29T07:18:44.241Z,1009.56
2017-08-29T07:19:44.259Z,1009.56
2017-08-29T07:20:44.260Z,1009.61
2017-08-29T07:21:44.280Z,1009.55
2017-08-29T07:22:44.287Z,1009.53
2017-08-29T07:23:44.308Z,1009.51
2017-08-29T07:24:44.320Z,1009.51
2017-08-29T07:25:44.338Z,1009.53
2017-08-29T07:26:44.346Z,1009.54
2017-08-29T07:27:44.364Z,1009.56
2017-08-29T07:28:44.386Z,1009.50
2017-08-29T07:29:44.389Z,1009.48
2017-08-29T07:30:44.404Z,1009.50
2017-08-29T07:31:44.416Z,1009.54
2017-08-29T07:32:44.429Z,1009.52
2017-08-29T07:33:44.446Z,1009.53
2017-08-29T07:34:44.463Z,1009.51
2017-08-29T07:35:44.474Z,1009.57
2017-08-29T07:36:44.484Z,1009.61
2017-08-29T07:37:44.506Z,1009.62
2017-08-29T07:38:44.514Z,1009.62
2017-08-29T07:39:44.544Z,1009.60
2017-08-29T07:40:44.537Z,1009.58
2017-08-29T07:41:44.555Z,1009.59
2017-08-29T07:42:44.579Z,1009.63
2017-08-29T07:43:44.590Z,1009.58
2017-08-29T07:44:44.595Z,1009.58
2017-08-29T07:45:44.612Z,1009.60
2017-08-29T07:46:44.627Z,1009.59
2017-08-29T07:47:44.643Z,1009.55
2017-08-29T07:48:44.654Z,1009.57
2017-08-29T07:49:44.669Z,1009.56
2017-08-29T07:50:44.692Z,1009.58
2017-08-29T07:51:44.693Z,1009.53
2017-08-29T07:52:44.708Z,1009.54
2017-08-29T07:53:44.721Z,1009.54
2017-08-29T07:54:44.740Z,1009.53
2017-08-29T07:55:44.750Z,1009.57
2017-08-29T07:56:44.762Z,1009.56
2017-08-29T07:57:49.391Z,1009.52
2017-08-29T07:58:44.793Z,1009.52
2017-08-29T07:59:49.414Z,1009.53
2017-08-29T08:00:44.826Z,1009.54
2017-08-29T08:02:18.409Z,1009.56
2017-08-29T08:02:44.864Z,1009.57
2017-08-29T08:03:50.478Z,1009.55
2017-08-29T08:04:44.881Z,1009.53
2017-08-29T08:05:51.995Z,1009.54
2017-08-29T08:06:44.908Z,1009.54
2017-08-29T08:07:47.014Z,1009.55
2017-08-29T08:08:44.958Z,1009.51
2017-08-29T08:09:50.913Z,1009.49
2017-08-29T08:10:44.961Z,1009.53
2017-08-29T08:11:46.028Z,1009.51
2017-08-29T08:12:44.991Z,1009.55
2017-08-29T08:13:51.967Z,1009.54
2017-08-29T08:14:45.022Z,1009.54
2017-08-29T08:15:47.065Z,1009.55
2017-08-29T08:16:45.045Z,1009.58
2017-08-29T08:17:46.162Z,1009.58
2017-08-29T08:18:45.087Z,1009.61
2017-08-29T08:19:45.150Z,1009.57
2017-08-29T08:20:45.101Z,1009.59
2017-08-29T08:21:56.931Z,1009.58
2017-08-29T08:22:45.134Z,1009.60
2017-08-29T08:23:51.930Z,1009.58
2017-08-29T08:24:45.159Z,1009.57
2017-08-29T08:26:06.281Z,1009.62
2017-08-29T08:26:45.190Z,1009.61
2017-08-29T08:27:45.203Z,1009.64
2017-08-29T08:28:49.916Z,1009.63
2017-08-29T08:29:45.231Z,1009.59
2017-08-29T08:30:45.321Z,1009.65
2017-08-29T08:31:45.261Z,1009.61
2017-08-29T08:32:47.381Z,1009.64
2017-08-29T08:33:45.290Z,1009.60
2017-08-29T08:34:45.346Z,1009.59
2017-08-29T08:35:45.314Z,1009.53
2017-08-29T08:36:49.968Z,1009.57
2017-08-29T08:37:45.347Z,1009.53
2017-08-29T08:38:47.436Z,1009.57
2017-08-29T08:39:45.377Z,1009.58
2017-08-29T08:40:57.979Z,1009.52
2017-08-29T08:41:45.406Z,1009.50
2017-08-29T08:42:50.420Z,1009.49
2017-08-29T08:43:45.432Z,1009.46
2017-08-29T08:45:06.459Z,1009.50
2017-08-29T08:45:45.462Z,1009.46
2017-08-29T08:46:45.543Z,1009.48
2017-08-29T08:47:45.494Z,1009.45
2017-08-29T08:48:45.556Z,1009.43
2017-08-29T08:49:45.519Z,1009.40
2017-08-29T08:50:45.619Z,1009.40
2017-08-29T08:51:45.548Z,1009.41
2017-08-29T08:52:45.626Z,1009.40
2017-08-29T08:53:45.877Z,1009.35
2017-08-29T08:54:45.646Z,1009.37
2017-08-29T08:55:45.617Z,1009.39
2017-08-29T08:56:45.680Z,1009.37
2017-08-29T08:57:45.638Z,1009.37
2017-08-29T08:58:45.713Z,1009.36
2017-08-29T08:59:45.671Z,1009.39
2017-08-29T09:00:45.729Z,1009.35
2017-08-29T09:01:45.699Z,1009.35
2017-08-29T09:02:45.740Z,1009.30
2017-08-29T09:03:45.746Z,1009.34
2017-08-29T09:04:45.857Z,1009.31
2017-08-29T09:05:45.758Z,1009.32
2017-08-29T09:06:45.869Z,1009.27
2017-08-29T09:07:45.785Z,1009.31
2017-08-29T09:08:45.886Z,1009.23
2017-08-29T09:09:45.816Z,1009.22
2017-08-29T09:10:45.899Z,1009.25
2017-08-29T09:11:45.939Z,1009.22
2017-08-29T09:12:45.863Z,1009.19
2017-08-29T09:13:45.929Z,1009.19
2017-08-29T09:14:45.887Z,1009.21
2017-08-29T09:15:45.931Z,1009.20
2017-08-29T09:16:45.916Z,1009.22
2017-08-29T09:17:46.044Z,1009.19
2017-08-29T09:18:45.952Z,1009.23
2017-08-29T09:19:45.966Z,1009.24
2017-08-29T09:20:45.989Z,1009.25
2017-08-29T09:21:45.997Z,1009.22
2017-08-29T09:22:46.012Z,1009.22
2017-08-29T09:23:46.085Z,1009.23
2017-08-29T09:24:46.041Z,1009.23
2017-08-29T09:25:46.099Z,1009.22
2017-08-29T09:26:46.072Z,1009.20
2017-08-29T09:27:46.113Z,1009.22
2017-08-29T09:28:46.112Z,1009.19
2017-08-29T09:29:46.229Z,1009.20
2017-08-29T09:30:46.163Z,1009.17
2017-08-29T09:31:46.243Z,1009.18
2017-08-29T09:32:46.172Z,1009.16
2017-08-29T09:33:46.261Z,1009.10
2017-08-29T09:34:46.202Z,1009.11
2017-08-29T09:35:46.272Z,1009.10
2017-08-29T09:36:46.225Z,1009.10
2017-08-29T09:37:46.285Z,1009.08
2017-08-29T09:38:46.257Z,1009.12
2017-08-29T09:39:46.296Z,1009.12
2017-08-29T09:40:46.291Z,1009.08
2017-08-29T09:41:46.302Z,1009.06
2017-08-29T09:42:46.319Z,1009.04
2017-08-29T09:43:46.332Z,1009.04
2017-08-29T09:44:46.349Z,1009.02
2017-08-29T09:45:46.365Z,1009.06
2017-08-29T09:46:46.396Z,1009.05
2017-08-29T09:47:46.395Z,1009.02
2017-08-29T09:48:47.443Z,1008.96
2017-08-29T09:49:46.461Z,1008.99
2017-08-29T09:50:47.458Z,1008.96
2017-08-29T09:51:46.458Z,1008.95
2017-08-29T09:52:46.550Z,1008.92
2017-08-29T09:53:46.493Z,1008.94
2017-08-29T09:54:46.574Z,1008.93
2017-08-29T09:55:46.524Z,1008.89
2017-08-29T09:56:46.583Z,1008.95
2017-08-29T09:57:46.557Z,1008.91
2017-08-29T09:58:46.592Z,1008.87
2017-08-29T09:59:46.587Z,1008.86
2017-08-29T10:00:46.708Z,1008.89
2017-08-29T10:01:46.626Z,1008.89
2017-08-29T10:02:47.761Z,1008.86
2017-08-29T10:03:46.660Z,1008.90
2017-08-29T10:04:46.738Z,1008.87
2017-08-29T10:05:46.681Z,1008.87
2017-08-29T10:06:46.752Z,1008.86
2017-08-29T10:07:46.715Z,1008.88
2017-08-29T10:08:46.767Z,1008.82
2017-08-29T10:09:46.743Z,1008.80
2017-08-29T10:10:46.820Z,1008.82
2017-08-29T10:11:46.780Z,1008.79
2017-08-29T10:12:46.790Z,1008.83
2017-08-29T10:13:46.919Z,1008.74
2017-08-29T10:14:46.826Z,1008.76
2017-08-29T10:15:46.840Z,1008.76
2017-08-29T10:16:46.854Z,1008.75
2017-08-29T10:17:46.927Z,1008.72
2017-08-29T10:18:46.887Z,1008.73
2017-08-29T10:19:46.941Z,1008.79
2017-08-29T10:20:46.921Z,1008.77
2017-08-29T10:21:46.954Z,1008.76
2017-08-29T10:22:46.960Z,1008.76
2017-08-29T10:23:46.969Z,1008.72
2017-08-29T10:24:46.985Z,1008.76
2017-08-29T10:25:47.082Z,1008.71
2017-08-29T10:26:47.019Z,1008.69
2017-08-29T10:27:47.097Z,1008.67
2017-08-29T10:28:47.064Z,1008.63
2017-08-29T10:29:47.110Z,1008.63
2017-08-29T10:30:47.091Z,1008.66
2017-08-29T10:31:47.127Z,1008.62
2017-08-29T10:32:47.115Z,1008.67
2017-08-29T10:33:47.240Z,1008.66
2017-08-29T10:34:47.149Z,1008.60
2017-08-29T10:35:47.256Z,1008.59
2017-08-29T10:36:47.185Z,1008.60
2017-08-29T10:37:48.290Z,1008.58
2017-08-29T10:38:47.215Z,1008.56
2017-08-29T10:39:47.291Z,1008.51
2017-08-29T10:40:47.241Z,1008.52
2017-08-29T10:41:47.261Z,1008.54
2017-08-29T10:42:47.313Z,1008.52
2017-08-29T10:43:47.301Z,1008.56
2017-08-29T10:44:47.317Z,1008.55
2017-08-29T10:45:47.336Z,1008.56
2017-08-29T10:46:47.450Z,1008.55
2017-08-29T10:47:47.373Z,1008.61
2017-08-29T10:48:47.445Z,1008.61
2017-08-29T10:49:47.387Z,1008.58
2017-08-29T10:50:47.465Z,1008.56
2017-08-29T10:51:47.424Z,1008.56
2017-08-29T10:52:47.476Z,1008.55
2017-08-29T10:53:47.470Z,1008.52
2017-08-29T10:54:47.483Z,1008.56
2017-08-29T10:55:47.496Z,1008.55
2017-08-29T10:56:47.599Z,1008.58
2017-08-29T10:57:47.529Z,1008.52
2017-08-29T10:58:47.612Z,1008.45
2017-08-29T10:59:47.553Z,1008.45
2017-08-29T11:00:47.633Z,1008.40
2017-08-29T11:01:47.606Z,1008.39
2017-08-29T11:02:47.644Z,1008.35
2017-08-29T11:03:47.621Z,1008.34
2017-08-29T11:04:47.663Z,1008.31
2017-08-29T11:05:47.656Z,1008.29
2017-08-29T11:06:47.768Z,1008.29
2017-08-29T11:07:47.688Z,1008.30
2017-08-29T11:08:47.784Z,1008.31
2017-08-29T11:09:47.719Z,1008.32
2017-08-29T11:10:47.740Z,1008.37
2017-08-29T11:11:47.752Z,1008.36
2017-08-29T11:12:47.778Z,1008.38
2017-08-29T11:13:47.824Z,1008.33
2017-08-29T11:14:47.814Z,1008.36
2017-08-29T11:15:47.965Z,1008.34
2017-08-29T11:16:47.849Z,1008.32
2017-08-29T11:17:47.966Z,1008.29
2017-08-29T11:18:47.872Z,1008.27
2017-08-29T11:19:47.997Z,1008.30
2017-08-29T11:20:47.907Z,1008.35
2017-08-29T11:21:47.935Z,1008.31
2017-08-29T11:22:47.937Z,1008.35
2017-08-29T11:23:47.952Z,1008.30
2017-08-29T11:24:47.977Z,1008.28
2017-08-29T11:25:48.069Z,1008.29
2017-08-29T11:26:48.007Z,1008.27
2017-08-29T11:27:48.020Z,1008.24
2017-08-29T11:28:48.155Z,1008.25
2017-08-29T11:29:48.057Z,1008.19
2017-08-29T11:30:48.077Z,1008.22
2017-08-29T11:31:48.151Z,1008.22
2017-08-29T11:32:48.108Z,1008.18
2017-08-29T11:33:48.180Z,1008.18
2017-08-29T11:34:48.144Z,1008.20
2017-08-29T11:35:48.181Z,1008.20
2017-08-29T11:36:48.172Z,1008.23
2017-08-29T11:37:48.302Z,1008.19
2017-08-29T11:38:48.205Z,1008.19
2017-08-29T11:39:48.311Z,1008.17
2017-08-29T11:40:48.241Z,1008.14
2017-08-29T11:41:48.326Z,1008.13
2017-08-29T11:42:48.296Z,1008.10
2017-08-29T11:43:48.300Z,1008.08
2017-08-29T11:44:48.308Z,1008.06
2017-08-29T11:45:48.322Z,1008.09
2017-08-29T11:46:48.339Z,1008.11
2017-08-29T11:47:48.468Z,1008.11
2017-08-29T11:48:48.385Z,1008.10
2017-08-29T11:49:48.390Z,1008.14
2017-08-29T11:50:48.410Z,1008.14
2017-08-29T11:51:48.426Z,1008.08
2017-08-29T11:52:48.449Z,1008.12
2017-08-29T11:53:48.472Z,1008.10
2017-08-29T11:54:48.481Z,1008.10
2017-08-29T11:55:48.499Z,1008.05
2017-08-29T11:56:48.507Z,1008.08
2017-08-29T11:57:48.530Z,1008.01
2017-08-29T11:58:48.543Z,1008.02
2017-08-29T11:59:48.581Z,1008.00
2017-08-29T12:00:48.582Z,1007.99
2017-08-29T12:01:48.596Z,1007.98
2017-08-29T12:02:48.620Z,1007.99
2017-08-29T12:03:48.639Z,1007.98
2017-08-29T12:04:48.647Z,1007.97
2017-08-29T12:05:48.665Z,1007.97
2017-08-29T12:06:48.698Z,1007.91
2017-08-29T12:07:48.700Z,1007.89
2017-08-29T12:08:48.717Z,1007.91
2017-08-29T12:09:48.737Z,1007.87
2017-08-29T12:10:48.753Z,1007.89
2017-08-29T12:11:48.771Z,1007.88
2017-08-29T12:12:48.794Z,1007.89
2017-08-29T12:13:48.808Z,1007.86
2017-08-29T12:14:48.832Z,1007.86
2017-08-29T12:15:48.836Z,1007.87
2017-08-29T12:16:48.867Z,1007.87
2017-08-29T12:17:48.976Z,1007.87
2017-08-29T12:18:48.895Z,1007.82
2017-08-29T12:19:48.908Z,1007.86
2017-08-29T12:20:48.932Z,1007.84
2017-08-29T12:21:48.957Z,1007.86
2017-08-29T12:22:49.009Z,1007.84
2017-08-29T12:23:48.991Z,1007.85
2017-08-29T12:24:49.022Z,1007.86
2017-08-29T12:25:49.059Z,1007.89
2017-08-29T12:26:49.025Z,1007.80
2017-08-29T12:27:49.045Z,1007.80
2017-08-29T12:28:49.067Z,1007.80
2017-08-29T12:29:49.084Z,1007.81
2017-08-29T12:30:49.101Z,1007.81
2017-08-29T12:31:49.112Z,1007.77
2017-08-29T12:32:49.142Z,1007.70
2017-08-29T12:33:49.158Z,1007.69
2017-08-29T12:34:49.165Z,1007.71
2017-08-29T12:35:49.190Z,1007.69
2017-08-29T12:36:49.220Z,1007.74
2017-08-29T12:37:49.221Z,1007.72
2017-08-29T12:38:49.239Z,1007.77
2017-08-29T12:39:49.256Z,1007.74
2017-08-29T12:40:49.273Z,1007.71